Time;durP1;ratioP1;P1;durP2;ratioP2;P2;SDS_P1;SDS_P2;PMS_P1;PMS_P2;Temp;Humidity;BMP_temperature;BMP_pressure;BME280_temperature;BME280_humidity;BME280_pressure;Samples;Min_cycle;Max_cycle;Signal;HPM_P1;HPM_P2
2021/07/15 00:02:05;;;;;;;0.40;0.40;;;14.20;99.90;;;;;;5033938;28;20213;-68
2021/07/15 00:04:31;;;;;;;0.40;0.40;;;14.10;99.90;;;;;;5033612;28;20216;-68
2021/07/15 00:06:57;;;;;;;0.40;0.40;;;14.20;99.90;;;;;;5032150;28;20457;-68
2021/07/15 00:09:23;;;;;;;1.03;0.40;;;14.20;99.90;;;;;;5033522;28;20826;-68
2021/07/15 00:11:49;;;;;;;0.40;0.40;;;14.20;99.90;;;;;;5033552;28;20170;-67
2021/07/15 00:14:20;;;;;;;0.40;0.40;;;14.10;99.90;;;;;;5033520;28;20408;-68
2021/07/15 00:16:48;;;;;;;0.40;0.40;;;14.00;99.90;;;;;;5033361;28;20440;-68
2021/07/15 00:19:15;;;;;;;0.40;0.40;;;14.20;99.90;;;;;;5033369;28;20424;-68
2021/07/15 00:21:41;;;;;;;0.40;0.40;;;14.10;99.90;;;;;;5033474;28;20810;-68
2021/07/15 00:24:07;;;;;;;0.50;0.50;;;14.00;99.90;;;;;;5033266;28;20501;-68
2021/07/15 00:26:32;;;;;;;1.20;0.40;;;13.90;99.90;;;;;;5033288;28;20227;-68
2021/07/15 00:28:58;;;;;;;0.40;0.40;;;13.90;99.90;;;;;;5033409;28;20238;-68
2021/07/15 00:31:24;;;;;;;0.40;0.40;;;13.90;99.90;;;;;;5033387;28;20175;-68
2021/07/15 00:33:49;;;;;;;0.40;0.40;;;13.90;99.90;;;;;;5033433;28;20364;-68
2021/07/15 00:36:15;;;;;;;0.40;0.40;;;13.90;99.90;;;;;;5033248;28;20195;-68
2021/07/15 00:38:41;;;;;;;1.43;0.40;;;14.00;99.90;;;;;;5033654;28;20531;-68
2021/07/15 00:41:07;;;;;;;0.70;0.63;;;14.00;99.90;;;;;;5033025;28;20217;-68
2021/07/15 00:43:33;;;;;;;0.93;0.50;;;13.90;99.90;;;;;;5032199;28;20432;-67
2021/07/15 00:45:59;;;;;;;0.40;0.40;;;14.00;99.90;;;;;;5033165;28;20426;-68
2021/07/15 00:48:25;;;;;;;1.33;0.40;;;13.90;99.90;;;;;;5033183;28;20174;-67
2021/07/15 00:50:52;;;;;;;0.40;0.40;;;14.10;99.90;;;;;;5032890;28;20412;-68
2021/07/15 00:53:18;;;;;;;0.50;0.50;;;14.10;99.90;;;;;;5033071;28;20413;-68
2021/07/15 00:55:44;;;;;;;0.50;0.50;;;14.00;99.90;;;;;;5033175;28;20447;-68
2021/07/15 00:58:13;;;;;;;0.40;0.40;;;14.10;99.90;;;;;;5033130;28;20186;-68
2021/07/15 01:00:41;;;;;;;0.43;0.43;;;14.00;99.90;;;;;;5032922;28;20555;-68
2021/07/15 01:03:09;;;;;;;0.57;0.50;;;14.00;99.90;;;;;;5033223;28;20424;-68
2021/07/15 01:05:46;;;;;;;0.50;0.50;;;14.10;99.90;;;;;;5033082;28;20515;-68
2021/07/15 01:08:13;;;;;;;0.40;0.40;;;14.10;99.90;;;;;;5033116;28;20772;-68
2021/07/15 01:10:43;;;;;;;0.40;0.40;;;14.10;99.90;;;;;;5032910;28;20457;-68
2021/07/15 01:13:29;;;;;;;0.30;0.30;;;14.10;99.90;;;;;;5037010;28;20400;-68
2021/07/15 01:16:17;;;;;;;0.30;0.30;;;14.20;99.90;;;;;;5036844;28;20475;-68
2021/07/15 01:19:03;;;;;;;0.33;0.33;;;14.20;99.90;;;;;;5036932;28;20402;-67
2021/07/15 01:21:44;;;;;;;1.27;0.50;;;14.30;99.90;;;;;;5036853;28;20928;-68
2021/07/15 01:24:38;;;;;;;0.70;0.70;;;14.20;99.90;;;;;;5036853;28;20394;-68
2021/07/15 01:27:09;;;;;;;0.60;0.50;;;14.40;99.90;;;;;;5036540;28;20472;-68
2021/07/15 01:30:07;;;;;;;0.40;0.40;;;14.40;99.90;;;;;;5035104;28;20913;-68
2021/07/15 01:32:57;;;;;;;0.40;0.40;;;14.40;99.90;;;;;;5036651;28;20398;-68
2021/07/15 01:35:40;;;;;;;0.60;0.60;;;14.40;99.90;;;;;;5028903;28;20441;-68
2021/07/15 01:38:07;;;;;;;0.40;0.40;;;14.50;99.90;;;;;;5036582;28;20485;-68
2021/07/15 01:40:44;;;;;;;0.50;0.40;;;14.40;99.90;;;;;;5036253;28;20507;-68
2021/07/15 01:43:13;;;;;;;0.40;0.40;;;14.40;99.90;;;;;;5036452;28;20899;-68
2021/07/15 01:45:40;;;;;;;0.40;0.40;;;14.40;99.90;;;;;;5036154;28;20512;-68
2021/07/15 01:48:06;;;;;;;0.40;0.40;;;14.30;99.90;;;;;;5036538;28;20427;-68
2021/07/15 01:50:33;;;;;;;0.50;0.50;;;14.20;99.90;;;;;;5036093;28;20413;-68
2021/07/15 01:52:59;;;;;;;0.40;0.40;;;14.30;99.90;;;;;;5036301;28;20918;-68
2021/07/15 01:55:26;;;;;;;0.40;0.40;;;14.40;99.90;;;;;;5036131;28;20475;-68
2021/07/15 01:57:53;;;;;;;0.57;0.57;;;14.30;99.90;;;;;;5036403;28;20485;-68
2021/07/15 02:00:19;;;;;;;0.40;0.40;;;14.20;99.90;;;;;;5035776;28;20460;-68
2021/07/15 02:02:47;;;;;;;0.73;0.73;;;14.10;99.90;;;;;;5036171;28;20410;-68
2021/07/15 02:05:14;;;;;;;0.70;0.70;;;14.10;99.90;;;;;;5035791;28;20833;-68
2021/07/15 02:07:40;;;;;;;0.40;0.40;;;14.30;99.90;;;;;;5034469;28;20563;-68
2021/07/15 02:10:10;;;;;;;0.60;0.60;;;14.20;99.90;;;;;;5035618;28;20839;-68
2021/07/15 02:12:37;;;;;;;0.30;0.30;;;14.40;99.90;;;;;;5035959;28;20498;-68
2021/07/15 02:15:04;;;;;;;0.60;0.60;;;14.30;99.90;;;;;;5035625;28;20412;-68
2021/07/15 02:17:33;;;;;;;0.50;0.50;;;14.40;99.90;;;;;;5035603;28;20421;-69
2021/07/15 02:20:00;;;;;;;0.50;0.50;;;14.40;99.90;;;;;;5035354;28;20420;-68
2021/07/15 02:22:27;;;;;;;0.40;0.40;;;14.50;99.90;;;;;;5035340;28;20405;-68
2021/07/15 02:24:54;;;;;;;0.40;0.40;;;14.40;99.90;;;;;;5035703;28;20496;-68
2021/07/15 02:27:20;;;;;;;0.40;0.40;;;14.50;99.90;;;;;;5035449;28;20410;-68
2021/07/15 02:29:46;;;;;;;0.40;0.40;;;14.50;99.90;;;;;;5035218;28;20401;-68
2021/07/15 02:32:14;;;;;;;0.57;0.40;;;14.40;99.90;;;;;;5035437;28;20897;-68
2021/07/15 02:34:50;;;;;;;0.70;0.47;;;14.60;99.90;;;;;;5035456;28;20440;-68
2021/07/15 02:37:18;;;;;;;0.40;0.40;;;14.60;99.90;;;;;;5035164;28;20429;-68
2021/07/15 02:39:44;;;;;;;0.40;0.40;;;14.50;99.90;;;;;;5035029;28;20484;-68
2021/07/15 02:42:10;;;;;;;0.50;0.50;;;14.60;99.90;;;;;;5035438;28;20956;-68
2021/07/15 02:44:37;;;;;;;0.70;0.70;;;14.50;99.90;;;;;;5035230;28;20258;-68
2021/07/15 02:47:03;;;;;;;0.40;0.40;;;14.40;99.90;;;;;;5033732;28;20569;-68
2021/07/15 02:49:28;;;;;;;0.40;0.40;;;14.40;99.90;;;;;;5035042;28;20500;-67
2021/07/15 02:51:54;;;;;;;0.40;0.40;;;14.30;99.90;;;;;;5035121;28;20178;-68
2021/07/15 02:54:20;;;;;;;0.43;0.43;;;14.30;99.90;;;;;;5034965;28;20174;-67
2021/07/15 02:56:54;;;;;;;0.40;0.40;;;14.50;99.90;;;;;;5034799;28;20196;-68
2021/07/15 02:59:27;;;;;;;0.40;0.40;;;14.50;99.90;;;;;;5034783;28;20760;-68
2021/07/15 03:02:09;;;;;;;0.40;0.40;;;14.50;99.90;;;;;;5034997;28;20952;-68
2021/07/15 03:04:45;;;;;;;0.40;0.40;;;14.50;99.90;;;;;;5035015;28;20394;-68
2021/07/15 03:07:11;;;;;;;0.30;0.30;;;14.40;99.90;;;;;;5034613;28;20543;-68
2021/07/15 03:09:40;;;;;;;0.40;0.40;;;14.40;99.90;;;;;;5034519;28;20449;-68
2021/07/15 03:12:11;;;;;;;0.40;0.40;;;14.20;99.90;;;;;;5034730;28;20421;-68
2021/07/15 03:14:39;;;;;;;0.57;0.40;;;14.30;99.90;;;;;;5033510;28;20911;-68
2021/07/15 03:17:15;;;;;;;0.40;0.40;;;14.30;99.90;;;;;;5034462;28;20455;-68
2021/07/15 03:19:45;;;;;;;0.30;0.30;;;14.30;99.90;;;;;;5034512;28;20420;-68
2021/07/15 03:22:11;;;;;;;0.40;0.40;;;14.20;99.90;;;;;;5034587;28;20479;-67
2021/07/15 03:24:43;;;;;;;0.50;0.50;;;14.30;99.90;;;;;;5034533;28;20429;-68
2021/07/15 03:27:09;;;;;;;0.40;0.40;;;14.40;99.90;;;;;;5034258;28;20454;-68
2021/07/15 03:29:36;;;;;;;0.40;0.40;;;14.40;99.90;;;;;;5034084;28;20410;-68
2021/07/15 03:32:05;;;;;;;0.40;0.40;;;14.30;99.90;;;;;;5034237;28;20419;-68
2021/07/15 03:34:34;;;;;;;0.50;0.50;;;14.30;99.90;;;;;;5033463;28;20424;-67
2021/07/15 03:37:01;;;;;;;0.90;0.40;;;14.50;99.90;;;;;;5034038;28;20819;-68
2021/07/15 03:39:27;;;;;;;0.40;0.40;;;14.50;99.90;;;;;;5034089;28;20414;-68
2021/07/15 03:41:53;;;;;;;0.30;0.30;;;14.50;99.90;;;;;;5034098;28;20540;-68
2021/07/15 03:44:21;;;;;;;0.53;0.53;;;14.50;99.90;;;;;;5034016;28;20412;-68
2021/07/15 03:46:48;;;;;;;0.40;0.40;;;14.40;99.90;;;;;;5033881;28;20465;-67
2021/07/15 03:49:17;;;;;;;0.30;0.30;;;14.40;99.90;;;;;;5033762;28;20475;-67
2021/07/15 03:51:44;;;;;;;0.40;0.40;;;14.40;99.90;;;;;;5034016;28;20813;-68
2021/07/15 03:54:11;;;;;;;0.40;0.40;;;14.40;99.90;;;;;;5033853;28;20466;-68
2021/07/15 03:56:38;;;;;;;0.60;0.60;;;14.40;99.90;;;;;;5033722;28;20444;-68
2021/07/15 03:59:05;;;;;;;0.50;0.50;;;14.50;99.90;;;;;;5033759;28;20441;-68
2021/07/15 04:01:31;;;;;;;0.50;0.50;;;14.40;99.90;;;;;;5033710;28;20456;-68
2021/07/15 04:04:00;;;;;;;0.40;0.40;;;14.50;99.90;;;;;;5033787;28;20451;-68
2021/07/15 04:06:27;;;;;;;0.40;0.40;;;14.60;99.90;;;;;;5033528;28;20956;-68
2021/07/15 04:08:54;;;;;;;1.40;0.90;;;14.70;99.90;;;;;;5033396;28;20442;-68
2021/07/15 04:11:22;;;;;;;0.50;0.50;;;14.70;99.90;;;;;;5033559;28;20496;-68
2021/07/15 04:13:48;;;;;;;0.50;0.50;;;14.50;99.90;;;;;;5033416;28;20501;-68
2021/07/15 04:16:38;;;;;;;0.60;0.60;;;14.50;99.90;;;;;;5033442;28;20464;-68
2021/07/15 04:19:06;;;;;;;0.50;0.50;;;14.50;99.90;;;;;;5033447;28;20189;-67
2021/07/15 04:21:34;;;;;;;0.50;0.50;;;14.40;99.90;;;;;;5033529;28;20978;-68
2021/07/15 04:24:00;;;;;;;0.67;0.67;;;14.50;99.90;;;;;;5033440;28;20401;-68
2021/07/15 04:26:26;;;;;;;0.50;0.50;;;14.60;99.90;;;;;;5033364;28;20464;-68
2021/07/15 04:28:53;;;;;;;0.40;0.40;;;14.60;99.90;;;;;;5033199;28;20457;-68
2021/07/15 04:31:32;;;;;;;0.57;0.57;;;14.60;99.90;;;;;;5033449;28;20175;-68
2021/07/15 04:34:00;;;;;;;0.40;0.40;;;14.70;99.90;;;;;;5033468;28;20393;-68
2021/07/15 04:36:30;;;;;;;0.87;0.87;;;14.60;99.90;;;;;;5031952;28;20448;-68
2021/07/15 04:38:56;;;;;;;0.63;0.63;;;14.60;99.90;;;;;;5033121;28;20401;-68
2021/07/15 04:41:24;;;;;;;0.63;0.63;;;14.60;99.90;;;;;;5033253;28;20498;-68
2021/07/15 04:43:51;;;;;;;0.60;0.60;;;14.60;99.90;;;;;;5032006;28;20410;-68
2021/07/15 04:46:20;;;;;;;0.80;0.80;;;14.60;99.90;;;;;;5034076;28;20978;-68
2021/07/15 04:48:46;;;;;;;0.60;0.60;;;14.70;99.90;;;;;;5037275;28;20397;-73
2021/07/15 04:51:16;;;;;;;0.40;0.40;;;14.80;99.90;;;;;;5037217;28;20908;-67
2021/07/15 04:53:45;;;;;;;0.90;0.90;;;14.80;99.90;;;;;;5036992;28;20409;-67
2021/07/15 04:56:12;;;;;;;0.43;0.43;;;14.90;99.90;;;;;;5036995;28;20422;-67
2021/07/15 04:58:39;;;;;;;0.40;0.40;;;14.90;99.90;;;;;;5035147;28;20410;-67
2021/07/15 05:01:04;;;;;;;0.70;0.50;;;14.80;99.90;;;;;;5036748;28;20512;-67
2021/07/15 05:03:32;;;;;;;0.50;0.50;;;14.90;99.90;;;;;;5037106;28;20401;-67
2021/07/15 05:05:59;;;;;;;0.40;0.40;;;14.80;99.90;;;;;;5036959;28;20187;-67
2021/07/15 05:08:26;;;;;;;0.40;0.40;;;14.80;99.90;;;;;;5036942;28;20500;-67
2021/07/15 05:10:52;;;;;;;0.40;0.40;;;14.90;99.90;;;;;;5036911;28;20406;-67
2021/07/15 05:13:18;;;;;;;0.50;0.50;;;14.90;99.90;;;;;;5037021;28;20402;-67
2021/07/15 05:15:46;;;;;;;0.40;0.40;;;14.80;99.90;;;;;;5036706;28;20436;-67
2021/07/15 05:18:12;;;;;;;0.40;0.40;;;14.90;99.90;;;;;;5036998;28;20304;-67
2021/07/15 05:20:37;;;;;;;2.83;0.40;;;15.00;99.90;;;;;;5036588;28;21023;-67
2021/07/15 05:23:03;;;;;;;0.40;0.40;;;15.20;99.90;;;;;;5036739;28;20252;-67
2021/07/15 05:25:28;;;;;;;0.40;0.40;;;15.10;99.90;;;;;;5036638;28;20194;-67
2021/07/15 05:27:54;;;;;;;0.40;0.40;;;14.90;99.90;;;;;;5036500;28;20239;-67
2021/07/15 05:30:20;;;;;;;0.40;0.40;;;14.80;99.90;;;;;;5036526;28;20630;-67
2021/07/15 05:32:45;;;;;;;0.30;0.30;;;14.80;99.90;;;;;;5035289;28;20273;-67
2021/07/15 05:35:11;;;;;;;0.40;0.40;;;14.80;99.90;;;;;;5036382;28;20209;-67
2021/07/15 05:37:38;;;;;;;0.33;0.33;;;14.80;99.90;;;;;;5036612;28;20262;-67
2021/07/15 05:40:05;;;;;;;0.40;0.40;;;14.80;99.90;;;;;;5036205;28;20849;-67
2021/07/15 05:42:30;;;;;;;0.40;0.40;;;14.90;99.90;;;;;;5036360;28;20408;-67
2021/07/15 05:44:56;;;;;;;0.30;0.30;;;14.90;99.90;;;;;;5036119;28;20413;-67
2021/07/15 05:47:22;;;;;;;0.50;0.50;;;15.00;99.90;;;;;;5036235;28;20654;-67
2021/07/15 05:49:47;;;;;;;0.57;0.57;;;15.10;99.90;;;;;;5036014;28;20586;-67
2021/07/15 05:52:13;;;;;;;0.40;0.40;;;15.10;99.90;;;;;;5036230;28;20197;-67
2021/07/15 05:54:39;;;;;;;0.40;0.40;;;15.20;99.90;;;;;;5036303;28;20172;-68
2021/07/15 05:57:06;;;;;;;0.40;0.40;;;15.30;99.90;;;;;;5035034;28;20726;-67
2021/07/15 05:59:34;;;;;;;0.40;0.40;;;15.40;99.90;;;;;;5036030;28;20794;-67
2021/07/15 06:02:01;;;;;;;0.40;0.40;;;15.50;99.90;;;;;;5036056;28;20461;-67
2021/07/15 06:04:27;;;;;;;0.50;0.43;;;15.60;99.90;;;;;;5036110;28;20461;-67
2021/07/15 06:06:53;;;;;;;0.40;0.40;;;15.70;99.90;;;;;;5035777;28;20494;-67
2021/07/15 06:09:19;;;;;;;0.37;0.37;;;15.80;99.90;;;;;;5035722;28;20432;-67
2021/07/15 06:11:44;;;;;;;0.87;0.67;;;15.90;99.90;;;;;;5035924;28;20175;-67
2021/07/15 06:14:10;;;;;;;0.53;0.53;;;16.10;99.90;;;;;;5035699;28;20230;-67
2021/07/15 06:16:36;;;;;;;0.40;0.40;;;16.10;99.90;;;;;;5034395;28;20206;-67
2021/07/15 06:19:02;;;;;;;0.67;0.67;;;16.20;99.90;;;;;;5035832;28;20531;-67
2021/07/15 06:21:28;;;;;;;0.40;0.40;;;16.30;99.90;;;;;;5035776;28;20281;-68
2021/07/15 06:23:54;;;;;;;0.50;0.50;;;16.40;99.90;;;;;;5035752;28;20448;-67
2021/07/15 06:26:20;;;;;;;0.60;0.60;;;16.20;99.90;;;;;;5035596;28;20428;-67
2021/07/15 06:28:46;;;;;;;0.50;0.50;;;16.10;99.90;;;;;;5035531;28;20170;-67
2021/07/15 06:31:11;;;;;;;0.50;0.50;;;16.10;99.90;;;;;;5035506;28;20770;-67
2021/07/15 06:33:38;;;;;;;0.40;0.40;;;16.20;99.90;;;;;;5035491;28;20180;-67
2021/07/15 06:36:08;;;;;;;0.80;0.80;;;16.20;99.90;;;;;;5035415;28;20268;-67
2021/07/15 06:38:37;;;;;;;0.60;0.60;;;16.20;99.90;;;;;;5035386;28;20423;-67
2021/07/15 06:41:09;;;;;;;1.07;0.70;;;16.10;99.90;;;;;;5034919;28;20460;-67
2021/07/15 06:43:35;;;;;;;0.50;0.50;;;16.20;99.90;;;;;;5035224;28;20389;-67
2021/07/15 06:46:01;;;;;;;0.80;0.70;;;16.10;99.90;;;;;;5035246;28;20433;-67
2021/07/15 06:48:28;;;;;;;0.53;0.53;;;16.10;99.90;;;;;;5035316;28;20459;-67
2021/07/15 06:50:54;;;;;;;0.40;0.40;;;16.30;99.90;;;;;;5035035;28;20439;-67
2021/07/15 06:53:20;;;;;;;0.50;0.50;;;16.20;99.90;;;;;;5035143;28;20412;-67
2021/07/15 06:55:46;;;;;;;0.57;0.57;;;16.50;99.90;;;;;;5034926;28;20569;-67
2021/07/15 06:58:11;;;;;;;0.77;0.77;;;16.70;99.90;;;;;;5034955;28;20304;-67
2021/07/15 07:00:37;;;;;;;1.10;1.10;;;16.80;99.90;;;;;;5034772;28;20277;-67
2021/07/15 07:03:03;;;;;;;0.73;0.70;;;17.00;99.90;;;;;;5035164;28;20722;-67
2021/07/15 07:05:29;;;;;;;0.63;0.63;;;17.20;99.90;;;;;;5034799;28;20186;-67
2021/07/15 07:07:54;;;;;;;1.80;1.70;;;17.40;99.90;;;;;;5034630;28;20201;-67
2021/07/15 07:10:20;;;;;;;1.30;1.20;;;17.40;99.90;;;;;;5034481;28;20201;-68
2021/07/15 07:12:47;;;;;;;1.50;1.00;;;17.50;99.90;;;;;;5034694;28;20672;-67
2021/07/15 07:15:15;;;;;;;0.90;0.70;;;17.60;99.90;;;;;;5034696;28;20452;-67
2021/07/15 07:17:41;;;;;;;1.70;0.60;;;17.80;99.90;;;;;;5034640;28;20410;-67
2021/07/15 07:20:09;;;;;;;0.40;0.40;;;17.90;99.90;;;;;;5032978;28;20422;-67
2021/07/15 07:22:35;;;;;;;2.47;0.60;;;18.00;99.90;;;;;;5034549;28;20686;-67
2021/07/15 07:25:02;;;;;;;0.60;0.57;;;18.10;99.90;;;;;;5034313;28;20406;-67
2021/07/15 07:27:28;;;;;;;0.40;0.40;;;18.20;99.90;;;;;;5034377;28;20412;-67
2021/07/15 07:29:54;;;;;;;1.23;0.50;;;18.10;99.90;;;;;;5034093;28;20845;-67
2021/07/15 07:32:20;;;;;;;0.70;0.70;;;18.10;99.90;;;;;;5034512;28;20175;-67
2021/07/15 07:34:45;;;;;;;0.50;0.40;;;18.00;99.90;;;;;;5033107;28;20414;-67
2021/07/15 07:37:11;;;;;;;0.37;0.37;;;18.00;99.90;;;;;;5034782;28;20195;-67
2021/07/15 07:39:37;;;;;;;0.50;0.50;;;18.00;99.90;;;;;;5033956;28;20197;-67
2021/07/15 07:42:03;;;;;;;0.50;0.50;;;17.90;99.90;;;;;;5034074;28;20559;-67
2021/07/15 07:44:29;;;;;;;0.50;0.50;;;17.80;99.90;;;;;;5034258;28;20553;-67
2021/07/15 07:46:54;;;;;;;0.60;0.50;;;17.90;99.90;;;;;;5033918;28;20434;-67
2021/07/15 07:49:20;;;;;;;2.47;0.60;;;17.90;99.90;;;;;;5033909;28;20163;-68
2021/07/15 07:51:46;;;;;;;0.70;0.43;;;17.90;99.90;;;;;;5033867;28;20665;-68
2021/07/15 07:54:11;;;;;;;0.40;0.40;;;18.00;99.90;;;;;;5033855;28;20501;-67
2021/07/15 07:56:37;;;;;;;0.50;0.50;;;17.80;99.90;;;;;;5033846;28;20190;-67
2021/07/15 07:59:03;;;;;;;0.53;0.40;;;17.90;99.90;;;;;;5033938;28;20167;-67
2021/07/15 08:01:29;;;;;;;0.40;0.40;;;18.00;99.90;;;;;;5032400;28;20260;-68
2021/07/15 08:03:56;;;;;;;0.40;0.40;;;18.10;99.90;;;;;;5033682;28;20406;-67
2021/07/15 08:06:22;;;;;;;3.20;0.53;;;18.00;99.90;;;;;;5033564;28;20519;-67
2021/07/15 08:08:48;;;;;;;1.27;0.80;;;18.20;99.90;;;;;;5033471;28;20473;-68
2021/07/15 08:11:16;;;;;;;0.87;0.57;;;18.20;99.90;;;;;;5033654;28;20409;-67
2021/07/15 08:13:41;;;;;;;0.70;0.70;;;18.30;99.90;;;;;;5033789;28;20467;-67
2021/07/15 08:16:07;;;;;;;0.70;0.53;;;18.30;99.90;;;;;;5032331;28;20437;-68
2021/07/15 08:18:33;;;;;;;0.60;0.60;;;18.40;99.90;;;;;;5033522;28;20697;-68
2021/07/15 08:20:59;;;;;;;0.40;0.40;;;18.50;99.90;;;;;;5032700;28;20193;-68
2021/07/15 08:23:24;;;;;;;0.50;0.50;;;18.60;99.90;;;;;;5033456;28;20411;-68
2021/07/15 08:25:50;;;;;;;0.43;0.43;;;18.70;99.90;;;;;;5033375;28;20547;-67
2021/07/15 08:28:16;;;;;;;0.40;0.40;;;18.80;99.90;;;;;;5033528;28;20297;-67
2021/07/15 08:30:42;;;;;;;0.30;0.30;;;18.80;99.90;;;;;;5033348;28;20198;-67
2021/07/15 08:33:07;;;;;;;0.40;0.40;;;18.80;99.90;;;;;;5033298;28;20412;-67
2021/07/15 08:35:34;;;;;;;0.40;0.40;;;18.80;99.90;;;;;;5033348;28;20186;-67
2021/07/15 08:38:00;;;;;;;0.43;0.43;;;18.70;99.90;;;;;;5033695;28;20224;-67
2021/07/15 08:40:27;;;;;;;0.40;0.40;;;18.80;99.90;;;;;;5032965;28;20499;-67
2021/07/15 08:42:53;;;;;;;0.47;0.47;;;18.90;99.90;;;;;;5033273;28;20521;-67
2021/07/15 08:45:19;;;;;;;0.70;0.70;;;18.80;99.90;;;;;;5033313;28;20425;-67
2021/07/15 08:47:45;;;;;;;0.80;0.70;;;18.80;99.90;;;;;;5033191;28;20414;-68
2021/07/15 08:50:16;;;;;;;0.93;0.93;;;18.90;99.90;;;;;;5032989;28;20524;-68
2021/07/15 08:52:43;;;;;;;3.00;1.33;;;19.10;99.90;;;;;;5033309;28;20173;-67
2021/07/15 08:57:38;;;;;;;0.63;0.63;;;19.40;99.90;;;;;;5033103;28;20918;-67
2021/07/15 09:00:07;;;;;;;0.80;0.70;;;19.60;99.90;;;;;;5032916;28;20441;-66
2021/07/15 09:02:34;;;;;;;0.40;0.40;;;19.70;99.90;;;;;;5032930;28;20516;-67
2021/07/15 09:05:00;;;;;;;0.50;0.50;;;19.60;99.90;;;;;;5032880;28;20469;-67
2021/07/15 09:07:26;;;;;;;0.97;0.60;;;19.60;99.90;;;;;;5032978;28;20438;-67
2021/07/15 09:09:53;;;;;;;0.43;0.43;;;19.60;99.90;;;;;;5032880;28;20423;-67
2021/07/15 09:12:19;;;;;;;0.60;0.60;;;19.60;99.90;;;;;;5033085;28;20413;-68
2021/07/15 09:14:50;;;;;;;0.60;0.60;;;19.70;99.90;;;;;;5033074;28;20905;-67
2021/07/15 09:17:32;;;;;;;0.50;0.50;;;19.60;99.90;;;;;;5033069;28;20242;-67
2021/07/15 09:19:59;;;;;;;1.23;0.70;;;19.40;99.90;;;;;;5032891;28;20508;-67
2021/07/15 09:22:25;;;;;;;0.60;0.50;;;19.50;99.90;;;;;;5032830;28;20477;-67
2021/07/15 09:24:51;;;;;;;11.33;0.97;;;19.40;99.90;;;;;;5033051;28;20492;-68
2021/07/15 09:27:25;;;;;;;0.60;0.60;;;19.40;99.90;;;;;;5032731;28;20516;-67
2021/07/15 09:30:12;;;;;;;0.97;0.80;;;19.60;99.90;;;;;;5031767;28;20751;-67
2021/07/15 09:32:55;;;;;;;0.67;0.60;;;19.80;99.90;;;;;;5034362;28;20500;-70
2021/07/15 09:35:41;;;;;;;1.27;0.70;;;20.00;99.90;;;;;;5036616;28;20431;-68
2021/07/15 09:38:09;;;;;;;0.80;0.40;;;20.10;99.90;;;;;;5036445;28;20396;-67
2021/07/15 09:40:40;;;;;;;1.00;0.90;;;20.10;99.90;;;;;;5036001;28;20448;-67
2021/07/15 09:43:26;;;;;;;1.93;1.80;;;20.20;99.90;;;;;;5036550;28;20412;-67
2021/07/15 09:46:00;;;;;;;2.17;1.67;;;20.20;99.90;;;;;;5036524;28;20420;-67
2021/07/15 09:48:30;;;;;;;1.67;1.57;;;20.30;99.90;;;;;;5036894;28;20457;-69
2021/07/15 09:50:58;;;;;;;1.20;1.00;;;20.30;99.90;;;;;;5036038;28;20397;-67
2021/07/15 09:53:29;;;;;;;3.10;2.67;;;20.20;99.90;;;;;;5036336;28;20827;-68
2021/07/15 09:55:58;;;;;;;2.77;2.37;;;20.20;99.90;;;;;;5035616;28;20429;-69
2021/07/15 09:58:24;;;;;;;2.73;2.33;;;20.10;99.90;;;;;;5036219;28;20463;-68
2021/07/15 10:00:50;;;;;;;1.90;1.50;;;19.90;99.90;;;;;;5035707;28;20522;-68
2021/07/15 10:03:17;;;;;;;0.73;0.67;;;20.30;99.90;;;;;;5035981;28;20170;-68
2021/07/15 10:05:55;;;;;;;3.00;1.20;;;20.90;99.90;;;;;;5035565;28;20422;-68
2021/07/15 10:08:28;;;;;;;1.43;1.33;;;21.40;99.00;;;;;;5034512;28;20780;-68
2021/07/15 10:11:12;;;;;;;0.60;0.60;;;21.80;97.80;;;;;;5035208;28;20937;-68
2021/07/15 10:13:38;;;;;;;0.87;0.80;;;22.20;97.70;;;;;;5036062;28;20438;-67
2021/07/15 10:16:08;;;;;;;0.50;0.50;;;22.30;97.70;;;;;;5035902;28;20528;-68
2021/07/15 10:18:40;;;;;;;3.87;2.50;;;22.40;98.20;;;;;;5035175;28;20486;-68
2021/07/15 10:21:11;;;;;;;1.50;0.60;;;22.20;97.40;;;;;;5033045;28;20548;-68
2021/07/15 10:23:47;;;;;;;0.53;0.50;;;22.00;97.90;;;;;;5035807;28;20773;-68
2021/07/15 10:26:13;;;;;;;0.50;0.50;;;21.70;98.20;;;;;;5035683;28;20421;-68
2021/07/15 10:28:47;;;;;;;0.50;0.50;;;21.30;98.10;;;;;;5035402;28;20412;-68
2021/07/15 10:31:15;;;;;;;0.40;0.40;;;20.80;97.70;;;;;;5035750;28;20649;-68
2021/07/15 10:33:44;;;;;;;1.33;0.40;;;20.50;99.20;;;;;;5035528;28;20492;-68
2021/07/15 10:36:11;;;;;;;0.40;0.40;;;20.40;99.40;;;;;;5035247;28;20430;-68
2021/07/15 10:38:40;;;;;;;0.37;0.37;;;20.30;99.90;;;;;;5035512;28;20456;-68
2021/07/15 10:41:06;;;;;;;0.40;0.40;;;20.30;99.90;;;;;;5035098;28;20460;-68
2021/07/15 10:43:33;;;;;;;1.57;0.50;;;20.30;99.90;;;;;;5034951;28;20397;-68
2021/07/15 10:46:01;;;;;;;0.50;0.50;;;20.40;99.80;;;;;;5035212;28;20426;-67
2021/07/15 10:48:28;;;;;;;0.57;0.57;;;20.60;99.80;;;;;;5035247;28;20404;-67
2021/07/15 10:50:53;;;;;;;0.90;0.63;;;20.60;99.30;;;;;;5034819;28;20404;-68
2021/07/15 10:53:20;;;;;;;3.93;1.60;;;20.60;99.90;;;;;;5035011;28;20936;-68
2021/07/15 10:55:46;;;;;;;1.10;1.10;;;20.60;99.90;;;;;;5033635;28;20283;-68
2021/07/15 10:58:12;;;;;;;1.43;1.33;;;20.40;99.90;;;;;;5034469;28;20416;-68
2021/07/15 11:00:49;;;;;;;1.47;1.37;;;20.50;99.90;;;;;;5032486;28;20468;-68
2021/07/15 11:03:17;;;;;;;1.47;1.37;;;20.50;99.90;;;;;;5033848;28;20406;-68
2021/07/15 11:05:46;;;;;;;1.30;1.20;;;20.50;99.90;;;;;;5035105;28;20429;-68
2021/07/15 11:08:13;;;;;;;0.80;0.80;;;20.60;99.90;;;;;;5035019;28;20420;-67
2021/07/15 11:10:39;;;;;;;0.70;0.70;;;20.70;99.90;;;;;;5034605;28;20405;-68
2021/07/15 11:13:05;;;;;;;0.87;0.87;;;21.00;99.80;;;;;;5034867;28;20484;-68
2021/07/15 11:15:54;;;;;;;0.50;0.50;;;21.70;99.50;;;;;;5034632;28;20193;-68
2021/07/15 11:18:43;;;;;;;0.80;0.67;;;22.60;98.00;;;;;;5034575;28;20804;-68
2021/07/15 11:21:27;;;;;;;1.20;1.10;;;23.20;97.90;;;;;;5034559;28;20970;-68
2021/07/15 11:24:14;;;;;;;0.80;0.80;;;23.10;96.90;;;;;;5034630;28;20450;-67
2021/07/15 11:26:41;;;;;;;2.73;1.03;;;22.80;96.70;;;;;;5034234;28;20414;-68
2021/07/15 11:29:11;;;;;;;0.90;0.90;;;22.50;97.10;;;;;;5034203;28;20471;-68
2021/07/15 11:31:41;;;;;;;0.70;0.70;;;22.60;97.90;;;;;;5034421;28;20436;-68
2021/07/15 11:34:07;;;;;;;1.33;0.70;;;22.50;98.60;;;;;;5034425;28;20406;-68
2021/07/15 11:36:33;;;;;;;0.50;0.50;;;22.20;97.80;;;;;;5034212;28;20503;-68
2021/07/15 11:39:03;;;;;;;2.50;1.17;;;22.10;97.90;;;;;;5033938;28;20181;-68
2021/07/15 11:41:43;;;;;;;0.80;0.80;;;22.30;98.40;;;;;;5034314;28;20191;-68
2021/07/15 11:44:09;;;;;;;0.50;0.50;;;22.60;98.50;;;;;;5034291;28;20399;-68
2021/07/15 11:46:38;;;;;;;0.40;0.40;;;22.70;96.80;;;;;;5034203;28;20489;-68
2021/07/15 11:49:11;;;;;;;0.50;0.50;;;22.60;96.90;;;;;;5033857;28;20801;-68
2021/07/15 11:51:59;;;;;;;1.93;0.80;;;22.40;96.90;;;;;;5034187;28;20406;-68
2021/07/15 11:54:33;;;;;;;0.97;0.40;;;22.00;97.10;;;;;;5033640;28;20408;-68
2021/07/15 11:57:14;;;;;;;0.57;0.57;;;21.50;97.90;;;;;;5033722;28;20481;-68
2021/07/15 12:00:04;;;;;;;0.63;0.63;;;21.20;98.60;;;;;;5033618;28;20404;-68
2021/07/15 12:02:42;;;;;;;0.90;0.57;;;21.00;99.00;;;;;;5033756;28;20536;-68
2021/07/15 12:05:18;;;;;;;1.20;1.20;;;21.10;99.60;;;;;;5034371;28;20402;-68
2021/07/15 12:08:04;;;;;;;1.17;1.07;;;20.70;99.40;;;;;;5033619;28;20520;-67
2021/07/15 12:10:33;;;;;;;0.70;0.70;;;20.00;99.90;;;;;;5033467;28;20401;-67
2021/07/15 12:13:00;;;;;;;0.70;0.70;;;19.60;99.90;;;;;;5033628;28;20393;-68
2021/07/15 12:15:27;;;;;;;1.53;1.40;;;19.30;99.90;;;;;;5033614;28;20502;-68
2021/07/15 12:17:59;;;;;;;0.60;0.60;;;19.00;99.90;;;;;;5033498;28;20424;-68
2021/07/15 12:20:36;;;;;;;0.60;0.60;;;19.00;99.90;;;;;;5033219;28;20407;-67
2021/07/15 12:23:02;;;;;;;0.57;0.57;;;18.80;99.90;;;;;;5033560;28;20885;-68
2021/07/15 12:25:35;;;;;;;0.60;0.60;;;18.70;99.90;;;;;;5033506;28;20432;-68
2021/07/15 12:28:05;;;;;;;0.53;0.53;;;18.70;99.90;;;;;;5032111;28;20412;-68
2021/07/15 12:31:02;;;;;;;0.53;0.53;;;18.70;99.90;;;;;;5033216;28;20404;-68
2021/07/15 12:33:44;;;;;;;1.33;0.60;;;18.70;99.90;;;;;;5024258;28;20405;-68
2021/07/15 12:36:15;;;;;;;0.70;0.70;;;19.00;99.90;;;;;;5033270;28;20429;-68
2021/07/15 12:38:46;;;;;;;0.53;0.50;;;19.10;99.90;;;;;;5033020;28;20487;-68
2021/07/15 12:41:12;;;;;;;0.60;0.60;;;19.30;99.90;;;;;;5033413;28;20452;-68
2021/07/15 12:44:00;;;;;;;0.50;0.50;;;19.60;99.90;;;;;;5033590;28;20421;-68
2021/07/15 12:46:30;;;;;;;0.67;0.60;;;19.60;99.90;;;;;;5033321;28;20214;-68
2021/07/15 12:48:58;;;;;;;0.60;0.60;;;19.60;99.90;;;;;;5033095;28;20442;-68
2021/07/15 12:51:29;;;;;;;0.50;0.50;;;19.60;99.90;;;;;;5033296;28;20739;-68
2021/07/15 12:53:54;;;;;;;0.50;0.50;;;19.70;99.90;;;;;;5033534;28;20405;-67
2021/07/15 12:56:27;;;;;;;0.67;0.67;;;19.80;99.90;;;;;;5033102;28;20485;-68
2021/07/15 12:59:05;;;;;;;2.20;1.53;;;19.90;99.90;;;;;;5032992;28;20182;-68
2021/07/15 13:01:32;;;;;;;0.60;0.60;;;20.20;99.90;;;;;;5033216;28;20521;-68